Time;durP1;ratioP1;P1;durP2;ratioP2;P2;SDS_P1;SDS_P2;PMS_P1;PMS_P2;Temp;Humidity;BMP_temperature;BMP_pressure;BME280_temperature;BME280_humidity;BME280_pressure;Samples;Min_cycle;Max_cycle;Signal;HPM_P1;HPM_P2
2021/10/12 00:00:08;;;;;;;3.43;3.10;;;22.10;50.50;;;;;;5124790;27;20434;-83
2021/10/12 00:02:33;;;;;;;2.80;2.50;;;22.10;50.50;;;;;;5126844;28;20184;-83
2021/10/12 00:04:59;;;;;;;3.63;2.50;;;22.10;50.50;;;;;;5114849;28;20410;-83
2021/10/12 00:10:47;;;;;;;3.30;3.00;;;22.20;50.60;;;;;;5132840;28;20200;-83
2021/10/12 00:13:13;;;;;;;2.67;2.47;;;22.10;50.60;;;;;;5131918;28;20403;-83
2021/10/12 00:15:41;;;;;;;3.53;2.40;;;22.20;50.70;;;;;;5114434;28;20267;-82
2021/10/12 00:18:07;;;;;;;3.67;3.20;;;22.10;50.60;;;;;;5131448;28;20411;-82
2021/10/12 00:20:32;;;;;;;4.57;2.90;;;22.10;50.60;;;;;;5114179;28;20427;-82
2021/10/12 00:23:07;;;;;;;2.97;2.30;;;22.10;50.60;;;;;;5113879;28;20173;-82
2021/10/12 00:25:33;;;;;;;3.17;2.47;;;22.20;50.70;;;;;;5114177;28;20188;-82
2021/10/12 00:27:59;;;;;;;2.47;2.07;;;22.20;50.70;;;;;;5131843;28;20419;-82
2021/10/12 00:30:25;;;;;;;3.20;2.70;;;22.20;50.70;;;;;;5113764;28;20957;-82
2021/10/12 00:32:51;;;;;;;2.60;2.40;;;22.10;50.60;;;;;;5113325;28;20568;-82
2021/10/12 00:35:17;;;;;;;3.17;2.57;;;22.10;50.60;;;;;;5114069;28;20799;-82
2021/10/12 00:37:43;;;;;;;3.50;3.20;;;22.20;50.70;;;;;;5114102;28;20415;-82
2021/10/12 00:40:09;;;;;;;2.87;2.60;;;22.10;50.60;;;;;;5113730;28;20225;-83
2021/10/12 00:42:36;;;;;;;2.90;2.60;;;22.10;50.60;;;;;;5131891;28;20407;-83
2021/10/12 00:45:08;;;;;;;3.37;2.67;;;22.20;50.70;;;;;;5114133;28;20468;-83
2021/10/12 00:47:33;;;;;;;3.17;2.60;;;22.10;50.60;;;;;;5132198;28;20414;-83
2021/10/12 00:49:59;;;;;;;3.33;3.03;;;22.10;50.60;;;;;;5095925;28;20461;-83
2021/10/12 00:55:51;;;;;;;2.70;2.50;;;22.20;50.60;;;;;;5131610;28;20160;-83
2021/10/12 00:58:16;;;;;;;2.60;2.40;;;22.10;50.60;;;;;;5113380;28;20445;-83
2021/10/12 01:00:45;;;;;;;3.80;2.60;;;22.10;50.60;;;;;;5113611;28;20419;-83
2021/10/12 01:03:14;;;;;;;2.70;2.00;;;22.10;50.60;;;;;;5113013;28;20191;-83
2021/10/12 01:05:41;;;;;;;2.40;2.17;;;22.10;50.60;;;;;;5131373;28;20397;-83
2021/10/12 01:08:07;;;;;;;3.17;2.40;;;22.10;50.60;;;;;;5131852;28;20428;-83
2021/10/12 01:10:33;;;;;;;3.23;2.90;;;22.10;50.60;;;;;;5131051;28;20890;-83
2021/10/12 01:13:01;;;;;;;2.77;2.47;;;22.10;50.60;;;;;;5112452;28;20486;-82
2021/10/12 01:15:26;;;;;;;3.27;2.83;;;22.10;50.60;;;;;;5113224;28;20845;-83
2021/10/12 01:17:55;;;;;;;2.80;2.50;;;22.10;50.60;;;;;;5112861;28;20414;-82
2021/10/12 01:20:22;;;;;;;3.20;2.70;;;22.10;50.60;;;;;;5130533;28;20177;-83
2021/10/12 01:22:51;;;;;;;2.93;2.40;;;22.10;50.60;;;;;;5112523;28;20440;-83
2021/10/12 01:25:18;;;;;;;4.10;2.50;;;22.10;50.60;;;;;;5112916;28;20445;-83
2021/10/12 01:31:09;;;;;;;3.40;2.77;;;22.10;50.60;;;;;;5129987;28;20503;-83
2021/10/12 01:33:35;;;;;;;2.43;2.20;;;22.00;50.60;;;;;;5130786;28;20402;-83
2021/10/12 01:36:01;;;;;;;3.00;2.30;;;22.10;50.70;;;;;;5130478;28;20402;-83
2021/10/12 01:38:33;;;;;;;3.13;2.40;;;22.10;50.70;;;;;;5112818;28;20540;-83
2021/10/12 01:40:59;;;;;;;3.17;2.37;;;22.10;50.70;;;;;;5118268;28;20427;-83
2021/10/12 01:43:25;;;;;;;2.57;2.37;;;22.10;50.70;;;;;;5092681;28;20431;-82
2021/10/12 01:45:50;;;;;;;3.30;2.50;;;22.10;50.70;;;;;;5099224;28;20265;-82
2021/10/12 01:48:16;;;;;;;2.60;2.17;;;22.10;50.70;;;;;;5096985;28;20173;-82
2021/10/12 01:54:22;;;;;;;3.40;2.60;;;22.10;50.70;;;;;;5114005;28;20176;-83
2021/10/12 01:56:50;;;;;;;2.50;2.27;;;22.10;50.70;;;;;;5098755;28;20438;-83
2021/10/12 01:59:22;;;;;;;2.70;2.40;;;22.00;50.70;;;;;;5111200;28;20424;-83
2021/10/12 02:01:48;;;;;;;2.80;2.20;;;22.00;50.70;;;;;;5093385;28;20424;-83
2021/10/12 02:04:14;;;;;;;3.70;2.40;;;22.00;50.70;;;;;;5110876;28;20431;-83
2021/10/12 02:06:39;;;;;;;3.00;2.33;;;22.00;50.70;;;;;;5112278;28;20425;-82
2021/10/12 02:09:08;;;;;;;3.93;2.40;;;22.00;50.60;;;;;;5097354;28;20177;-82
2021/10/12 02:11:35;;;;;;;2.83;2.63;;;22.10;50.70;;;;;;5094216;28;20279;-83
2021/10/12 02:14:01;;;;;;;3.37;2.67;;;22.10;50.70;;;;;;5093237;28;20412;-83
2021/10/12 02:19:49;;;;;;;2.63;2.40;;;22.10;50.60;;;;;;5130241;28;20402;-83
2021/10/12 02:22:15;;;;;;;3.17;2.50;;;22.00;50.70;;;;;;5112066;28;20403;-82
2021/10/12 02:28:04;;;;;;;2.70;2.17;;;22.00;50.60;;;;;;5129436;28;20378;-82
2021/10/12 02:30:30;;;;;;;2.50;2.30;;;22.00;50.70;;;;;;5112450;28;20454;-82
2021/10/12 02:32:56;;;;;;;2.50;2.30;;;22.00;50.70;;;;;;5111805;28;20434;-82
2021/10/12 02:35:21;;;;;;;2.47;2.27;;;22.00;50.70;;;;;;5112533;28;20170;-82
2021/10/12 02:37:47;;;;;;;2.67;2.47;;;22.00;50.70;;;;;;5111378;28;20418;-82
2021/10/12 02:40:13;;;;;;;2.10;1.93;;;22.00;50.70;;;;;;5129962;28;20248;-82
2021/10/12 02:42:42;;;;;;;2.80;2.40;;;22.00;50.70;;;;;;5112431;28;20192;-82
2021/10/12 02:45:08;;;;;;;2.73;2.07;;;22.00;50.70;;;;;;5130022;28;20197;-82
2021/10/12 02:47:34;;;;;;;2.27;1.97;;;22.00;50.70;;;;;;5111454;28;20448;-82
2021/10/12 02:53:23;;;;;;;2.20;2.00;;;22.00;50.70;;;;;;5130120;28;20375;-82
2021/10/12 02:59:14;;;;;;;2.17;1.90;;;22.00;50.70;;;;;;5129731;28;20179;-82
2021/10/12 03:01:39;;;;;;;2.53;2.13;;;21.90;50.70;;;;;;5112062;28;20417;-82
2021/10/12 03:04:05;;;;;;;3.30;2.47;;;21.90;50.70;;;;;;5111319;28;20447;-82
2021/10/12 03:06:33;;;;;;;2.20;2.00;;;21.90;50.70;;;;;;5129746;28;20204;-82
2021/10/12 03:08:59;;;;;;;2.10;1.90;;;22.00;50.80;;;;;;5115475;28;20169;-82
2021/10/12 03:11:24;;;;;;;2.60;2.23;;;21.90;50.70;;;;;;5133377;28;20414;-82
2021/10/12 03:17:12;;;;;;;2.20;2.00;;;22.00;50.70;;;;;;5133501;28;20206;-82
2021/10/12 03:19:38;;;;;;;2.50;2.20;;;21.90;50.70;;;;;;5114681;28;20423;-82
2021/10/12 03:22:15;;;;;;;3.03;2.70;;;21.90;50.70;;;;;;5133370;28;20210;-82
2021/10/12 03:24:42;;;;;;;2.30;2.10;;;21.90;50.70;;;;;;5114712;28;20169;-83
2021/10/12 03:27:11;;;;;;;2.40;2.20;;;21.90;50.70;;;;;;5133117;28;20419;-82
2021/10/12 03:29:38;;;;;;;2.30;2.00;;;21.90;50.70;;;;;;5114584;28;20446;-81
2021/10/12 03:32:05;;;;;;;2.27;2.07;;;21.90;50.70;;;;;;5113019;28;20525;-80
2021/10/12 03:34:31;;;;;;;2.60;2.00;;;21.90;50.70;;;;;;5113710;28;20424;-81
2021/10/12 03:37:07;;;;;;;2.40;2.03;;;21.90;50.70;;;;;;5113236;28;20421;-82
2021/10/12 03:39:36;;;;;;;2.63;2.17;;;21.90;50.70;;;;;;5132328;28;20402;-81
2021/10/12 03:42:02;;;;;;;2.37;2.00;;;21.90;50.70;;;;;;5113765;28;20520;-81
2021/10/12 03:47:50;;;;;;;2.20;2.00;;;22.00;50.80;;;;;;5131305;28;20374;-82
2021/10/12 03:50:19;;;;;;;2.90;2.57;;;21.90;50.80;;;;;;5131078;28;20481;-82
2021/10/12 03:52:45;;;;;;;2.03;1.80;;;21.90;50.80;;;;;;5130923;28;20688;-82
2021/10/12 03:55:13;;;;;;;2.37;2.17;;;21.90;50.80;;;;;;5113104;28;20418;-82
2021/10/12 03:57:39;;;;;;;2.07;1.70;;;21.90;50.80;;;;;;5112551;28;20184;-82
2021/10/12 04:00:09;;;;;;;2.47;2.20;;;21.90;50.90;;;;;;5112936;28;20411;-81
2021/10/12 04:02:36;;;;;;;2.47;2.27;;;21.90;50.90;;;;;;5112079;28;20203;-82
2021/10/12 04:05:02;;;;;;;2.27;1.83;;;21.90;50.90;;;;;;5112534;28;20434;-82
2021/10/12 04:07:28;;;;;;;2.93;2.17;;;21.90;50.90;;;;;;5131269;28;20411;-82
2021/10/12 04:09:54;;;;;;;2.50;2.07;;;21.90;50.90;;;;;;5130398;28;20197;-82
2021/10/12 04:12:23;;;;;;;2.30;2.10;;;21.90;50.90;;;;;;5114172;28;20173;-82
2021/10/12 04:14:48;;;;;;;1.97;1.80;;;21.90;50.90;;;;;;5132227;28;20869;-81
2021/10/12 04:17:17;;;;;;;2.63;2.30;;;21.80;50.90;;;;;;5132080;28;20395;-82
2021/10/12 04:19:46;;;;;;;1.87;1.67;;;21.80;50.90;;;;;;5130890;28;20260;-82
2021/10/12 04:22:12;;;;;;;2.23;1.90;;;21.80;50.90;;;;;;5132038;28;20407;-82
2021/10/12 04:24:38;;;;;;;2.00;1.80;;;21.80;50.90;;;;;;5096579;28;20425;-82
2021/10/12 04:27:04;;;;;;;2.80;1.90;;;21.80;51.00;;;;;;5111606;28;20877;-82
2021/10/12 04:29:30;;;;;;;2.40;2.03;;;21.80;51.00;;;;;;5129689;28;20438;-82
2021/10/12 04:31:58;;;;;;;2.57;2.00;;;21.80;51.00;;;;;;5111610;28;20438;-82
2021/10/12 04:34:37;;;;;;;2.80;2.30;;;21.80;51.00;;;;;;5111820;28;20419;-81
2021/10/12 04:37:03;;;;;;;2.47;2.03;;;21.80;51.00;;;;;;5111625;28;20927;-81
2021/10/12 04:39:29;;;;;;;2.53;2.33;;;21.80;51.00;;;;;;5111532;28;20444;-81
2021/10/12 04:42:01;;;;;;;2.00;1.80;;;21.80;51.50;;;;;;5111395;28;20415;-81
2021/10/12 04:44:28;;;;;;;2.63;2.13;;;21.80;51.00;;;;;;5095177;28;20173;-81
2021/10/12 04:46:57;;;;;;;1.70;1.60;;;21.80;51.00;;;;;;5094484;28;20429;-81
2021/10/12 04:49:23;;;;;;;2.17;1.77;;;21.80;50.90;;;;;;5111242;28;20446;-81
2021/10/12 04:51:48;;;;;;;1.93;1.73;;;21.80;50.90;;;;;;5111110;28;20411;-81
2021/10/12 04:54:17;;;;;;;2.20;2.00;;;21.80;50.90;;;;;;5110984;28;20165;-81
2021/10/12 04:56:43;;;;;;;2.57;1.90;;;21.80;50.80;;;;;;5110536;28;20189;-81
2021/10/12 04:59:09;;;;;;;1.60;1.50;;;21.80;50.80;;;;;;5110551;28;20433;-83
2021/10/12 05:01:34;;;;;;;1.67;1.57;;;21.90;50.90;;;;;;5128692;28;20172;-82
2021/10/12 05:10:58;;;;;;;1.90;1.70;;;21.90;50.80;;;;;;5009390;28;20486;-81
2021/10/12 05:13:24;;;;;;;2.70;1.80;;;21.80;50.80;;;;;;5009073;28;20421;-81
2021/10/12 05:15:59;;;;;;;3.07;2.20;;;21.90;50.90;;;;;;5008011;28;20202;-80
2021/10/12 05:18:31;;;;;;;3.70;2.37;;;21.90;50.80;;;;;;4993961;28;20451;-81
2021/10/12 05:20:56;;;;;;;2.20;2.00;;;21.90;50.80;;;;;;4992471;28;20511;-81
2021/10/12 05:23:22;;;;;;;2.53;2.30;;;21.90;50.80;;;;;;5020238;28;20411;-81
2021/10/12 05:25:49;;;;;;;2.33;2.13;;;21.90;50.80;;;;;;5029265;28;20180;-81
2021/10/12 05:28:18;;;;;;;3.10;2.17;;;21.90;50.80;;;;;;5008920;28;20491;-81
2021/10/12 05:30:44;;;;;;;2.93;2.10;;;22.00;50.90;;;;;;5021768;28;20455;-82
2021/10/12 05:33:15;;;;;;;2.83;2.63;;;21.90;50.80;;;;;;5012380;28;20498;-81
2021/10/12 05:35:43;;;;;;;2.40;2.20;;;22.00;50.80;;;;;;5011128;28;20212;-81
2021/10/12 05:38:09;;;;;;;3.27;2.60;;;22.00;50.80;;;;;;5011938;28;20510;-81
2021/10/12 05:40:35;;;;;;;3.50;2.30;;;22.00;50.80;;;;;;5008219;28;20886;-81
2021/10/12 05:43:01;;;;;;;2.93;2.63;;;22.00;50.90;;;;;;5066034;28;20178;-82
2021/10/12 05:45:26;;;;;;;2.63;2.30;;;22.00;50.80;;;;;;5104604;28;20198;-82
2021/10/12 05:51:18;;;;;;;2.40;2.17;;;22.00;50.80;;;;;;5130217;28;20226;-82
2021/10/12 05:53:47;;;;;;;3.10;2.00;;;21.90;50.80;;;;;;5130916;28;20406;-82
2021/10/12 05:56:18;;;;;;;3.13;2.60;;;22.00;51.00;;;;;;5111791;28;20482;-84
2021/10/12 05:58:51;;;;;;;2.60;2.33;;;22.00;50.90;;;;;;5111264;28;20410;-84
2021/10/12 06:01:19;;;;;;;3.60;2.97;;;22.00;50.90;;;;;;5128181;28;20423;-83
2021/10/12 06:03:45;;;;;;;3.70;2.70;;;22.00;50.90;;;;;;5127988;28;20399;-83
2021/10/12 06:06:12;;;;;;;3.27;2.53;;;22.00;51.50;;;;;;5109554;28;20418;-83
2021/10/12 06:08:38;;;;;;;4.00;2.40;;;22.00;50.90;;;;;;5096159;28;20432;-83
2021/10/12 06:11:05;;;;;;;3.57;2.00;;;22.00;51.00;;;;;;5116079;28;20466;-83
2021/10/12 06:13:31;;;;;;;3.30;2.67;;;22.00;51.00;;;;;;5106013;28;20420;-83
2021/10/12 06:15:58;;;;;;;3.30;2.40;;;22.00;51.00;;;;;;5089569;28;20432;-82
2021/10/12 06:18:25;;;;;;;3.03;2.80;;;22.00;51.40;;;;;;5099876;28;20494;-83
2021/10/12 06:20:51;;;;;;;3.07;2.77;;;22.00;51.00;;;;;;5122715;28;20425;-82
2021/10/12 06:23:18;;;;;;;3.70;3.03;;;22.00;51.00;;;;;;5124120;27;20425;-82
2021/10/12 06:25:45;;;;;;;3.37;2.77;;;22.00;51.00;;;;;;5117554;28;20435;-82
2021/10/12 06:28:15;;;;;;;3.30;2.90;;;22.00;51.00;;;;;;5092533;28;20424;-82
2021/10/12 06:30:42;;;;;;;2.70;2.50;;;22.00;51.10;;;;;;5107319;28;20437;-83
2021/10/12 06:33:09;;;;;;;2.53;2.27;;;22.10;51.20;;;;;;5101224;28;20444;-83
2021/10/12 06:35:35;;;;;;;2.70;2.47;;;22.00;51.10;;;;;;5106997;28;20450;-83
2021/10/12 06:38:02;;;;;;;3.83;2.83;;;22.00;51.10;;;;;;5088924;28;20412;-83
2021/10/12 06:40:33;;;;;;;3.23;2.67;;;22.00;51.10;;;;;;5107895;28;20430;-83
2021/10/12 06:42:59;;;;;;;4.03;2.40;;;22.10;51.20;;;;;;5127814;28;20407;-83
2021/10/12 06:45:25;;;;;;;2.97;2.67;;;22.00;51.10;;;;;;5146917;28;20406;-83
2021/10/12 06:47:51;;;;;;;3.13;2.40;;;22.10;51.20;;;;;;5102838;28;20791;-83
2021/10/12 06:51:10;;;;;;;3.70;2.67;;;22.10;51.20;;;;;;5088991;28;20455;-82
2021/10/12 06:53:43;;;;;;;2.70;2.50;;;22.10;51.20;;;;;;5093495;28;20435;-83
2021/10/12 06:56:09;;;;;;;3.20;2.90;;;22.10;51.30;;;;;;5127581;28;20391;-82
2021/10/12 06:58:36;;;;;;;4.63;2.37;;;22.00;51.30;;;;;;5116138;28;20403;-83
2021/10/12 07:01:01;;;;;;;4.40;3.20;;;22.10;51.30;;;;;;5107445;28;20412;-84
2021/10/12 07:04:05;;;;;;;2.83;2.53;;;22.10;51.30;;;;;;5089263;28;20428;-83
2021/10/12 07:06:31;;;;;;;3.30;2.60;;;22.10;51.30;;;;;;5108028;28;20267;-83
2021/10/12 07:09:05;;;;;;;4.23;3.00;;;22.10;51.30;;;;;;5124058;28;20414;-83
2021/10/12 07:11:30;;;;;;;3.20;2.50;;;22.10;51.30;;;;;;5116696;28;20181;-83
2021/10/12 07:13:56;;;;;;;2.63;2.43;;;22.10;51.40;;;;;;5098416;28;20442;-83
2021/10/12 07:19:45;;;;;;;3.53;3.23;;;22.10;51.30;;;;;;5115536;28;20375;-83
2021/10/12 07:22:10;;;;;;;4.27;2.60;;;22.10;51.40;;;;;;5116674;28;20395;-83
2021/10/12 07:24:37;;;;;;;3.57;2.83;;;22.10;51.40;;;;;;5099808;28;20177;-84
2021/10/12 07:27:03;;;;;;;3.87;2.20;;;22.10;51.40;;;;;;5098437;28;20393;-84
2021/10/12 07:29:29;;;;;;;5.60;4.10;;;22.10;51.40;;;;;;5101309;28;20454;-82
2021/10/12 07:31:55;;;;;;;4.10;3.17;;;22.10;51.40;;;;;;5099953;28;20494;-84
2021/10/12 07:34:21;;;;;;;3.97;2.87;;;22.10;51.40;;;;;;5097671;28;20544;-83
2021/10/12 07:36:47;;;;;;;6.60;3.30;;;22.10;51.40;;;;;;5099698;28;20420;-83
2021/10/12 07:39:13;;;;;;;7.33;3.40;;;22.10;51.40;;;;;;5102626;28;20242;-83
2021/10/12 07:41:39;;;;;;;4.90;3.33;;;22.10;51.40;;;;;;5119713;28;20407;-83
2021/10/12 07:44:06;;;;;;;5.23;3.43;;;22.10;51.40;;;;;;5118021;28;20176;-83
2021/10/12 07:46:32;;;;;;;4.93;3.00;;;22.10;51.40;;;;;;5099747;28;20173;-83
2021/10/12 07:48:58;;;;;;;5.30;2.60;;;22.20;51.40;;;;;;5105664;28;20506;-84
2021/10/12 07:51:27;;;;;;;6.13;3.40;;;22.10;51.30;;;;;;5088308;28;20466;-83
2021/10/12 07:53:56;;;;;;;4.80;3.20;;;22.10;51.30;;;;;;5089318;28;20430;-83
2021/10/12 07:56:38;;;;;;;5.37;3.43;;;22.10;51.30;;;;;;5091504;28;20485;-83
2021/10/12 07:59:13;;;;;;;6.70;3.23;;;22.10;51.20;;;;;;5091569;28;20431;-84
2021/10/12 08:01:41;;;;;;;5.27;3.23;;;22.20;51.30;;;;;;5110384;28;20430;-83
2021/10/12 08:04:09;;;;;;;6.33;3.20;;;22.10;51.20;;;;;;5101528;27;20430;-83
2021/10/12 08:06:38;;;;;;;4.33;3.13;;;22.20;51.30;;;;;;5106827;28;20427;-82
2021/10/12 08:09:04;;;;;;;6.63;3.20;;;22.20;51.30;;;;;;5090840;28;20449;-84
2021/10/12 08:11:29;;;;;;;5.67;3.00;;;22.20;51.30;;;;;;5091670;28;20993;-83
2021/10/12 08:14:03;;;;;;;6.20;2.83;;;22.20;51.30;;;;;;5091449;28;20493;-83
2021/10/12 08:16:30;;;;;;;4.37;3.30;;;22.20;51.20;;;;;;5108155;28;20185;-83
2021/10/12 08:19:03;;;;;;;5.40;3.20;;;22.20;51.20;;;;;;5091202;28;20921;-83
2021/10/12 08:21:30;;;;;;;5.80;2.90;;;22.20;51.20;;;;;;5090891;28;20790;-83
2021/10/12 08:24:01;;;;;;;8.50;3.67;;;22.20;51.20;;;;;;5091348;28;20423;-83
2021/10/12 08:26:27;;;;;;;7.33;3.20;;;22.20;51.20;;;;;;5090922;28;20474;-83
2021/10/12 08:28:56;;;;;;;5.23;3.40;;;22.20;51.30;;;;;;5109037;28;20437;-83
2021/10/12 08:31:25;;;;;;;5.27;3.67;;;22.20;51.20;;;;;;5090385;28;20477;-83
2021/10/12 08:33:51;;;;;;;6.93;3.50;;;22.20;51.30;;;;;;5099025;28;20420;-83
2021/10/12 08:36:20;;;;;;;6.90;2.93;;;22.20;51.20;;;;;;5108361;28;20412;-83
2021/10/12 08:38:54;;;;;;;7.00;3.73;;;22.20;51.30;;;;;;5090574;28;20430;-83
2021/10/12 08:41:25;;;;;;;6.17;3.30;;;22.20;51.30;;;;;;5090902;28;20424;-83
2021/10/12 08:43:54;;;;;;;8.50;3.53;;;22.20;51.30;;;;;;5090912;28;20449;-82
2021/10/12 08:46:26;;;;;;;12.00;3.10;;;22.20;51.30;;;;;;5091401;28;20768;-84
2021/10/12 08:48:56;;;;;;;5.20;3.13;;;22.20;51.40;;;;;;5093796;28;20411;-83
2021/10/12 08:51:22;;;;;;;6.10;3.17;;;22.20;51.40;;;;;;5102432;28;20481;-83
2021/10/12 08:53:48;;;;;;;5.60;3.27;;;22.20;51.40;;;;;;5094873;28;20415;-83
2021/10/12 08:56:17;;;;;;;6.40;3.40;;;22.20;51.40;;;;;;5093943;28;20428;-83
2021/10/12 08:58:46;;;;;;;5.80;3.20;;;22.20;51.50;;;;;;5112477;28;20408;-83
2021/10/12 09:01:19;;;;;;;7.70;3.27;;;22.20;51.50;;;;;;5102230;27;20427;-83
2021/10/12 09:04:02;;;;;;;5.87;3.20;;;22.20;51.50;;;;;;5099966;28;20463;-84
2021/10/12 09:06:30;;;;;;;9.93;4.20;;;22.20;51.50;;;;;;5119005;27;20442;-84
2021/10/12 09:09:07;;;;;;;4.63;3.07;;;22.20;51.60;;;;;;5122286;28;20438;-84
2021/10/12 09:11:36;;;;;;;6.83;3.03;;;22.20;51.60;;;;;;5114910;28;20426;-84
2021/10/12 09:14:05;;;;;;;4.80;3.07;;;22.20;51.60;;;;;;5133059;28;20403;-84
2021/10/12 09:16:38;;;;;;;6.10;3.53;;;22.20;51.50;;;;;;5132523;28;20402;-82
2021/10/12 09:19:10;;;;;;;6.27;4.27;;;22.20;51.50;;;;;;5115472;28;20479;-82
2021/10/12 09:21:38;;;;;;;7.23;4.20;;;22.20;51.50;;;;;;5115701;28;20403;-82
2021/10/12 09:24:26;;;;;;;5.70;3.23;;;22.20;51.50;;;;;;5115611;28;20464;-82
2021/10/12 09:27:03;;;;;;;4.40;3.07;;;22.20;51.50;;;;;;5115463;28;20407;-83
2021/10/12 09:29:45;;;;;;;3.83;2.90;;;22.20;51.50;;;;;;5115927;28;20473;-82
2021/10/12 09:32:12;;;;;;;4.37;2.60;;;22.20;51.50;;;;;;5115610;28;20427;-82
2021/10/12 09:34:39;;;;;;;4.30;3.07;;;22.20;51.50;;;;;;5114512;28;20403;-82
2021/10/12 09:37:09;;;;;;;5.07;3.53;;;22.20;51.50;;;;;;5114983;28;20419;-82
2021/10/12 09:39:53;;;;;;;;;;;;;;;;;;;;;
2021/10/12 09:42:22;;;;;;;5.43;3.03;;;22.20;51.50;;;;;;5132595;28;20442;-82
2021/10/12 09:44:57;;;;;;;4.90;3.30;;;22.20;51.50;;;;;;5114097;28;20423;-82
2021/10/12 09:47:23;;;;;;;7.77;3.43;;;22.20;51.50;;;;;;5132276;28;20386;-82
2021/10/12 09:49:52;;;;;;;4.83;2.70;;;22.20;51.50;;;;;;5132037;28;20450;-82
2021/10/12 09:52:20;;;;;;;4.87;2.67;;;22.20;51.50;;;;;;5114281;28;20407;-82
2021/10/12 09:54:49;;;;;;;6.20;3.43;;;22.20;51.50;;;;;;5113516;28;20407;-82
2021/10/12 09:57:19;;;;;;;5.73;3.03;;;22.20;51.50;;;;;;5114161;28;20415;-81
2021/10/12 09:59:46;;;;;;;6.00;3.43;;;22.30;51.60;;;;;;5115415;28;20426;-82
2021/10/12 10:02:19;;;;;;;5.87;3.40;;;22.20;51.50;;;;;;5133931;28;20414;-82
2021/10/12 10:05:03;;;;;;;6.50;3.63;;;22.20;51.50;;;;;;5115929;28;20542;-83
2021/10/12 10:07:31;;;;;;;4.00;3.03;;;22.20;51.50;;;;;;5102258;28;20433;-82
2021/10/12 10:10:52;;;;;;;;;;;;;;;;;;;;;
2021/10/12 10:13:35;;;;;;;4.13;2.80;;;22.30;51.60;;;;;;5133911;28;20410;-82
2021/10/12 10:16:02;;;;;;;6.07;2.70;;;22.20;51.60;;;;;;5133921;28;20384;-82
2021/10/12 10:19:20;;;;;;;4.47;2.77;;;22.20;51.60;;;;;;5134457;28;20434;-82
2021/10/12 10:25:30;;;;;;;5.20;2.83;;;22.20;51.60;;;;;;5133798;28;20745;-83
2021/10/12 10:31:43;;;;;;;4.87;2.80;;;22.20;51.70;;;;;;5132103;28;20492;-82
2021/10/12 10:34:33;;;;;;;3.00;2.70;;;22.20;51.70;;;;;;5098876;28;20430;-82
2021/10/12 10:37:18;;;;;;;5.33;3.37;;;22.20;51.70;;;;;;5115285;28;20505;-83
2021/10/12 10:40:27;;;;;;;5.23;3.13;;;22.20;51.70;;;;;;5133299;28;20403;-82
2021/10/12 10:42:55;;;;;;;3.27;2.17;;;22.20;51.70;;;;;;5131654;28;20497;-82
2021/10/12 10:45:59;;;;;;;4.27;3.03;;;22.10;51.60;;;;;;5113863;28;20419;-82
2021/10/12 10:48:46;;;;;;;4.03;2.90;;;22.20;51.70;;;;;;5030152;28;20411;-83
2021/10/12 10:51:44;;;;;;;2.90;2.20;;;22.20;51.60;;;;;;5019774;28;20461;-83
2021/10/12 10:54:40;;;;;;;5.53;3.00;;;22.10;51.30;;;;;;5020767;28;20411;-82
2021/10/12 10:57:24;;;;;;;4.40;2.90;;;22.10;51.20;;;;;;5019437;28;20439;-83
2021/10/12 11:00:23;;;;;;;5.50;3.20;;;22.10;51.20;;;;;;5018843;28;20439;-82
2021/10/12 11:02:54;;;;;;;4.97;2.40;;;22.10;51.30;;;;;;5036742;28;20431;-82
2021/10/12 11:05:33;;;;;;;4.50;3.00;;;22.10;51.40;;;;;;5004230;28;20407;-82
2021/10/12 11:08:20;;;;;;;5.00;3.23;;;22.20;51.40;;;;;;5020836;28;20411;-82
2021/10/12 11:11:11;;;;;;;9.40;5.20;;;22.10;51.40;;;;;;5020863;28;20523;-82
2021/10/12 11:14:09;;;;;;;27.00;11.30;;;22.20;51.50;;;;;;5037277;28;20423;-82
2021/10/12 11:16:48;;;;;;;44.70;17.63;;;22.10;51.40;;;;;;5020366;28;20431;-82
2021/10/12 11:19:23;;;;;;;49.50;16.03;;;22.10;51.40;;;;;;5076245;28;20429;-82
2021/10/12 11:22:07;;;;;;;81.50;29.27;;;22.10;51.40;;;;;;5121258;28;20421;-82
2021/10/12 11:27:46;;;;;;;30.67;13.00;;;22.10;51.40;;;;;;5138752;28;20402;-82
2021/10/12 11:30:16;;;;;;;25.93;11.97;;;22.10;51.40;;;;;;5124835;28;20466;-82
2021/10/12 11:32:42;;;;;;;24.33;11.17;;;22.10;51.40;;;;;;5125211;27;20448;-82
2021/10/12 11:35:10;;;;;;;22.60;10.63;;;22.20;51.50;;;;;;5125264;28;20403;-82
2021/10/12 11:37:55;;;;;;;26.00;11.80;;;22.20;51.40;;;;;;5124745;28;20423;-82
2021/10/12 11:40:27;;;;;;;39.63;14.50;;;22.20;51.40;;;;;;5124946;28;20414;-82
2021/10/12 11:42:54;;;;;;;29.07;13.43;;;22.20;51.40;;;;;;5108591;28;20411;-82
2021/10/12 11:45:20;;;;;;;27.63;14.20;;;22.20;52.00;;;;;;5124414;28;20414;-82
2021/10/12 11:47:46;;;;;;;28.57;13.50;;;22.20;51.40;;;;;;5142421;28;20438;-82
2021/10/12 11:50:16;;;;;;;44.77;18.60;;;22.20;51.40;;;;;;5142132;28;20454;-82
2021/10/12 11:52:47;;;;;;;54.70;22.80;;;22.20;51.40;;;;;;5124796;28;20161;-82
2021/10/12 11:55:16;;;;;;;40.40;19.10;;;22.20;51.40;;;;;;5124644;28;20969;-82
2021/10/12 11:57:46;;;;;;;66.57;27.80;;;22.20;51.40;;;;;;5124786;28;20502;-82
2021/10/12 12:00:18;;;;;;;57.20;26.80;;;22.20;51.50;;;;;;5140146;28;20415;-83
2021/10/12 12:02:47;;;;;;;43.77;21.27;;;22.20;51.50;;;;;;5118131;28;20404;-83
2021/10/12 12:05:31;;;;;;;41.37;19.97;;;22.20;51.50;;;;;;5116784;28;20368;-83
2021/10/12 12:08:14;;;;;;;41.13;21.07;;;22.20;51.50;;;;;;5116523;28;20392;-83
2021/10/12 12:10:40;;;;;;;53.87;22.50;;;22.20;51.50;;;;;;5098662;28;20462;-83
2021/10/12 12:13:10;;;;;;;51.30;23.00;;;22.20;51.50;;;;;;5116740;28;20411;-83
2021/10/12 12:16:02;;;;;;;72.00;30.80;;;22.20;51.60;;;;;;5099002;28;20419;-83
2021/10/12 12:18:40;;;;;;;50.13;22.03;;;22.20;51.60;;;;;;5037567;28;20414;-83
2021/10/12 12:21:06;;;;;;;64.20;26.40;;;22.20;51.60;;;;;;5037858;28;20415;-83
2021/10/12 12:24:04;;;;;;;67.03;27.00;;;22.20;51.60;;;;;;5046242;28;20421;-83
2021/10/12 12:26:42;;;;;;;49.73;23.87;;;22.20;51.60;;;;;;5058723;28;20461;-83
2021/10/12 12:32:12;;;;;;;46.37;22.00;;;22.20;51.70;;;;;;5050762;28;21061;-83
2021/10/12 12:34:44;;;;;;;53.60;27.30;;;22.20;51.70;;;;;;5038075;28;20418;-83
2021/10/12 12:37:34;;;;;;;56.47;22.40;;;22.20;51.80;;;;;;5033253;28;20434;-83
2021/10/12 12:40:31;;;;;;;55.17;24.70;;;22.20;51.70;;;;;;4999921;28;20429;-83
2021/10/12 12:43:14;;;;;;;52.20;21.33;;;22.20;51.70;;;;;;5035037;28;20418;-79
2021/10/12 12:45:45;;;;;;;64.87;24.47;;;22.20;51.80;;;;;;5030857;28;20857;-82
2021/10/12 12:48:11;;;;;;;49.47;22.53;;;22.20;51.80;;;;;;5047249;28;20438;-82
2021/10/12 12:50:38;;;;;;;44.33;20.67;;;22.20;51.80;;;;;;5047813;28;20453;-82
2021/10/12 12:53:09;;;;;;;55.90;22.03;;;22.20;51.80;;;;;;5019350;28;20643;-82
2021/10/12 12:55:57;;;;;;;58.87;23.80;;;22.20;51.80;;;;;;5081725;28;20411;-82
2021/10/12 12:58:35;;;;;;;58.33;25.67;;;22.20;51.80;;;;;;5101342;27;20398;-82
2021/10/12 13:01:01;;;;;;;55.53;24.47;;;22.20;51.80;;;;;;5109701;28;20422;-82
2021/10/12 13:03:27;;;;;;;52.00;24.00;;;22.20;51.80;;;;;;5111019;28;20449;-82
2021/10/12 13:09:31;;;;;;;47.77;20.63;;;22.20;51.70;;;;;;5115951;27;20229;-81
2021/10/12 13:11:58;;;;;;;48.83;20.63;;;22.20;51.80;;;;;;5124453;28;20501;-82
2021/10/12 13:14:23;;;;;;;47.63;21.73;;;22.20;51.80;;;;;;5105106;28;20420;-82
2021/10/12 13:16:49;;;;;;;51.87;22.67;;;22.20;51.80;;;;;;5109535;28;20419;-82
2021/10/12 13:19:17;;;;;;;50.40;22.20;;;22.20;51.70;;;;;;5112350;28;20196;-82
2021/10/12 13:21:43;;;;;;;62.47;22.67;;;22.20;51.70;;;;;;5114034;28;20244;-82
2021/10/12 13:24:09;;;;;;;37.17;19.13;;;22.20;51.70;;;;;;5128363;28;20438;-82
2021/10/12 13:27:12;;;;;;;43.50;19.40;;;22.20;51.70;;;;;;5109465;28;20181;-82
2021/10/12 13:29:38;;;;;;;40.83;18.97;;;22.30;51.70;;;;;;5090684;28;20201;-82
2021/10/12 13:32:20;;;;;;;47.70;20.33;;;22.20;51.70;;;;;;5126621;28;20449;-82
2021/10/12 13:34:53;;;;;;;35.87;17.80;;;22.20;51.70;;;;;;5102760;28;20917;-82
2021/10/12 13:37:22;;;;;;;37.90;17.37;;;22.20;51.70;;;;;;5117984;27;20407;-82
2021/10/12 13:39:48;;;;;;;39.17;18.70;;;22.20;51.70;;;;;;5148691;27;20417;-82
2021/10/12 13:42:14;;;;;;;48.90;20.00;;;22.20;51.70;;;;;;5128833;28;20410;-82
2021/10/12 13:44:40;;;;;;;36.47;18.07;;;22.20;51.70;;;;;;5114881;28;20222;-82
2021/10/12 13:47:35;;;;;;;40.47;20.13;;;22.20;51.70;;;;;;5110512;28;20415;-82
2021/10/12 13:50:00;;;;;;;40.73;17.80;;;22.20;51.60;;;;;;5128510;28;20475;-82
2021/10/12 13:52:26;;;;;;;42.40;18.83;;;22.20;51.70;;;;;;5118246;28;20450;-82
2021/10/12 13:54:52;;;;;;;40.10;19.53;;;22.20;51.70;;;;;;5122527;27;20177;-82
2021/10/12 13:57:18;;;;;;;40.83;17.37;;;22.20;51.70;;;;;;5100609;27;20177;-82
2021/10/12 14:00:19;;;;;;;51.10;20.67;;;22.20;51.70;;;;;;5114263;28;20185;-84
2021/10/12 14:03:07;;;;;;;48.30;20.67;;;22.30;51.80;;;;;;5117597;28;20555;-84
2021/10/12 14:05:36;;;;;;;38.20;17.90;;;22.30;51.80;;;;;;5116733;28;20398;-84
2021/10/12 14:08:02;;;;;;;42.80;18.30;;;22.20;51.70;;;;;;5116087;27;20421;-83